Terminal Aerodrome Forecast
Issued by NWS Sioux Falls, SD

Home | Current Version | Previous Version | Text Only | Print | Product List | Glossary Off
Versions: 1 2 3 4 5 6 7 8 9 10 11 12 13 14 15 16 17 18 19 20 21 22 23

917
FTUS43 KFSD 031722
TAFSUX
TAF
KSUX 031722Z 0318/0418 27010KT P6SM FEW050
     FM032000 28014G21KT P6SM FEW060
     FM040200 28009KT P6SM SCT070
     FM040500 34008KT P6SM FEW250
     FM041600 34012KT P6SM SKC=

USA.gov is the U.S. government's official web portal to all federal, state and local government web resources and services.